sensor_id;sensor_type;location;lat;lon;timestamp;temperature;humidity
6788;DHT22;3431;47.966;10.268;2022-10-22T00:00:08;13.50;99.90
6788;DHT22;3431;47.966;10.268;2022-10-22T00:00:33;13.50;99.90
6788;DHT22;3431;47.966;10.268;2022-10-22T00:00:54;13.50;99.90
6788;DHT22;3431;47.966;10.268;2022-10-22T00:01:16;13.60;99.90
6788;DHT22;3431;47.966;10.268;2022-10-22T00:01:38;13.60;99.90
6788;DHT22;3431;47.966;10.268;2022-10-22T00:01:59;13.60;99.90
6788;DHT22;3431;47.966;10.268;2022-10-22T00:02:22;13.50;99.90
6788;DHT22;3431;47.966;10.268;2022-10-22T00:02:44;13.60;99.90
6788;DHT22;3431;47.966;10.268;2022-10-22T00:03:05;13.50;99.90
6788;DHT22;3431;47.966;10.268;2022-10-22T00:03:27;13.60;99.90
6788;DHT22;3431;47.966;10.268;2022-10-22T00:03:49;13.60;99.90
6788;DHT22;3431;47.966;10.268;2022-10-22T00:04:11;13.50;99.90
6788;DHT22;3431;47.966;10.268;2022-10-22T00:04:32;13.50;99.90
6788;DHT22;3431;47.966;10.268;2022-10-22T00:04:54;13.60;99.90
6788;DHT22;3431;47.966;10.268;2022-10-22T00:05:17;13.60;99.90
6788;DHT22;3431;47.966;10.268;2022-10-22T00:05:38;13.60;99.90
6788;DHT22;3431;47.966;10.268;2022-10-22T00:06:00;13.60;99.90
6788;DHT22;3431;47.966;10.268;2022-10-22T00:06:21;13.60;99.90
6788;DHT22;3431;47.966;10.268;2022-10-22T00:06:43;13.50;99.90
6788;DHT22;3431;47.966;10.268;2022-10-22T00:07:06;13.60;99.90
6788;DHT22;3431;47.966;10.268;2022-10-22T00:07:27;13.60;99.90
6788;DHT22;3431;47.966;10.268;2022-10-22T00:07:49;13.50;99.90
6788;DHT22;3431;47.966;10.268;2022-10-22T00:08:10;13.60;99.90
6788;DHT22;3431;47.966;10.268;2022-10-22T00:08:34;13.60;99.90
6788;DHT22;3431;47.966;10.268;2022-10-22T00:08:56;13.60;99.90
6788;DHT22;3431;47.966;10.268;2022-10-22T00:09:17;13.60;99.90
6788;DHT22;3431;47.966;10.268;2022-10-22T00:09:39;13.60;99.90
6788;DHT22;3431;47.966;10.268;2022-10-22T00:10:00;13.50;99.90
6788;DHT22;3431;47.966;10.268;2022-10-22T00:10:23;13.50;99.90
6788;DHT22;3431;47.966;10.268;2022-10-22T00:10:45;13.50;99.90
6788;DHT22;3431;47.966;10.268;2022-10-22T00:11:08;13.50;99.90
6788;DHT22;3431;47.966;10.268;2022-10-22T00:11:29;13.50;99.90
6788;DHT22;3431;47.966;10.268;2022-10-22T00:11:51;13.50;99.90
6788;DHT22;3431;47.966;10.268;2022-10-22T00:12:14;13.50;99.90
6788;DHT22;3431;47.966;10.268;2022-10-22T00:12:36;13.50;99.90
6788;DHT22;3431;47.966;10.268;2022-10-22T00:12:57;13.50;99.90
6788;DHT22;3431;47.966;10.268;2022-10-22T00:13:19;13.50;99.90
6788;DHT22;3431;47.966;10.268;2022-10-22T00:13:42;13.50;99.90
6788;DHT22;3431;47.966;10.268;2022-10-22T00:14:04;13.50;99.90
6788;DHT22;3431;47.966;10.268;2022-10-22T00:14:26;13.40;99.90
6788;DHT22;3431;47.966;10.268;2022-10-22T00:14:48;13.50;99.90
6788;DHT22;3431;47.966;10.268;2022-10-22T00:15:11;13.50;99.90
6788;DHT22;3431;47.966;10.268;2022-10-22T00:15:34;13.50;99.90
6788;DHT22;3431;47.966;10.268;2022-10-22T00:15:55;13.50;99.90
6788;DHT22;3431;47.966;10.268;2022-10-22T00:16:17;13.40;99.90
6788;DHT22;3431;47.966;10.268;2022-10-22T00:16:38;13.50;99.90
6788;DHT22;3431;47.966;10.268;2022-10-22T00:17:01;13.50;99.90
6788;DHT22;3431;47.966;10.268;2022-10-22T00:17:22;13.50;99.90
6788;DHT22;3431;47.966;10.268;2022-10-22T00:17:44;13.50;99.90
6788;DHT22;3431;47.966;10.268;2022-10-22T00:18:05;13.50;99.90
6788;DHT22;3431;47.966;10.268;2022-10-22T00:18:27;13.50;99.90
6788;DHT22;3431;47.966;10.268;2022-10-22T00:18:50;13.50;99.90
6788;DHT22;3431;47.966;10.268;2022-10-22T00:19:11;13.50;99.90
6788;DHT22;3431;47.966;10.268;2022-10-22T00:19:33;13.50;99.90
6788;DHT22;3431;47.966;10.268;2022-10-22T00:19:55;13.50;99.90
6788;DHT22;3431;47.966;10.268;2022-10-22T00:20:17;13.50;99.90
6788;DHT22;3431;47.966;10.268;2022-10-22T00:20:39;13.40;99.90
6788;DHT22;3431;47.966;10.268;2022-10-22T00:21:01;13.40;99.90
6788;DHT22;3431;47.966;10.268;2022-10-22T00:21:22;13.40;99.90
6788;DHT22;3431;47.966;10.268;2022-10-22T00:21:45;13.40;99.90
6788;DHT22;3431;47.966;10.268;2022-10-22T00:22:07;13.40;99.90
6788;DHT22;3431;47.966;10.268;2022-10-22T00:22:30;13.40;99.90
6788;DHT22;3431;47.966;10.268;2022-10-22T00:22:51;13.40;99.90
6788;DHT22;3431;47.966;10.268;2022-10-22T00:23:13;13.40;99.90
6788;DHT22;3431;47.966;10.268;2022-10-22T00:23:35;13.40;99.90
6788;DHT22;3431;47.966;10.268;2022-10-22T00:24:00;13.40;99.90
6788;DHT22;3431;47.966;10.268;2022-10-22T00:24:21;13.40;99.90
6788;DHT22;3431;47.966;10.268;2022-10-22T00:24:43;13.40;99.90
6788;DHT22;3431;47.966;10.268;2022-10-22T00:25:06;13.40;99.90
6788;DHT22;3431;47.966;10.268;2022-10-22T00:25:27;13.30;99.90
6788;DHT22;3431;47.966;10.268;2022-10-22T00:25:49;13.30;99.90
6788;DHT22;3431;47.966;10.268;2022-10-22T00:26:10;13.30;99.90
6788;DHT22;3431;47.966;10.268;2022-10-22T00:26:33;13.30;99.90
6788;DHT22;3431;47.966;10.268;2022-10-22T00:26:54;13.30;99.90
6788;DHT22;3431;47.966;10.268;2022-10-22T00:27:16;13.30;99.90
6788;DHT22;3431;47.966;10.268;2022-10-22T00:27:38;13.30;99.90
6788;DHT22;3431;47.966;10.268;2022-10-22T00:28:00;13.30;99.90
6788;DHT22;3431;47.966;10.268;2022-10-22T00:28:22;13.20;99.90
6788;DHT22;3431;47.966;10.268;2022-10-22T00:28:43;13.20;99.90
6788;DHT22;3431;47.966;10.268;2022-10-22T00:29:05;13.30;99.90
6788;DHT22;3431;47.966;10.268;2022-10-22T00:29:27;13.20;99.90
6788;DHT22;3431;47.966;10.268;2022-10-22T00:29:49;13.30;99.90
6788;DHT22;3431;47.966;10.268;2022-10-22T00:30:11;13.20;99.90
6788;DHT22;3431;47.966;10.268;2022-10-22T00:30:34;13.20;99.90
6788;DHT22;3431;47.966;10.268;2022-10-22T00:30:56;13.20;99.90
6788;DHT22;3431;47.966;10.268;2022-10-22T00:31:18;13.20;99.90
6788;DHT22;3431;47.966;10.268;2022-10-22T00:31:40;13.10;99.90
6788;DHT22;3431;47.966;10.268;2022-10-22T00:32:03;13.20;99.90
6788;DHT22;3431;47.966;10.268;2022-10-22T00:32:24;13.20;99.90
6788;DHT22;3431;47.966;10.268;2022-10-22T00:32:46;13.20;99.90
6788;DHT22;3431;47.966;10.268;2022-10-22T00:33:07;13.10;99.90
6788;DHT22;3431;47.966;10.268;2022-10-22T00:33:30;13.10;99.90
6788;DHT22;3431;47.966;10.268;2022-10-22T00:33:52;13.10;99.90
6788;DHT22;3431;47.966;10.268;2022-10-22T00:34:14;13.10;99.90
6788;DHT22;3431;47.966;10.268;2022-10-22T00:34:35;13.10;99.90
6788;DHT22;3431;47.966;10.268;2022-10-22T00:34:58;13.10;99.90
6788;DHT22;3431;47.966;10.268;2022-10-22T00:35:19;13.10;99.90
6788;DHT22;3431;47.966;10.268;2022-10-22T00:35:42;13.10;99.90
6788;DHT22;3431;47.966;10.268;2022-10-22T00:36:04;13.10;99.90
6788;DHT22;3431;47.966;10.268;2022-10-22T00:36:26;13.10;99.90
6788;DHT22;3431;47.966;10.268;2022-10-22T00:36:50;13.10;99.90
6788;DHT22;3431;47.966;10.268;2022-10-22T00:37:11;13.10;99.90
6788;DHT22;3431;47.966;10.268;2022-10-22T00:37:33;13.10;99.90
6788;DHT22;3431;47.966;10.268;2022-10-22T00:37:54;13.10;99.90
6788;DHT22;3431;47.966;10.268;2022-10-22T00:38:17;13.10;99.90
6788;DHT22;3431;47.966;10.268;2022-10-22T00:38:39;13.10;99.90
6788;DHT22;3431;47.966;10.268;2022-10-22T00:39:00;13.00;99.90
6788;DHT22;3431;47.966;10.268;2022-10-22T00:39:25;13.00;99.90
6788;DHT22;3431;47.966;10.268;2022-10-22T00:39:47;13.00;99.90
6788;DHT22;3431;47.966;10.268;2022-10-22T00:40:10;12.90;99.90
6788;DHT22;3431;47.966;10.268;2022-10-22T00:40:32;12.90;99.90
6788;DHT22;3431;47.966;10.268;2022-10-22T00:40:55;12.80;99.90
6788;DHT22;3431;47.966;10.268;2022-10-22T00:41:16;12.80;99.90
6788;DHT22;3431;47.966;10.268;2022-10-22T00:41:38;12.80;99.90
6788;DHT22;3431;47.966;10.268;2022-10-22T00:42:00;12.80;99.90
6788;DHT22;3431;47.966;10.268;2022-10-22T00:42:25;12.70;99.90
6788;DHT22;3431;47.966;10.268;2022-10-22T00:42:46;12.70;99.90
6788;DHT22;3431;47.966;10.268;2022-10-22T00:43:10;12.70;99.90
6788;DHT22;3431;47.966;10.268;2022-10-22T00:43:32;12.60;99.90
6788;DHT22;3431;47.966;10.268;2022-10-22T00:43:57;12.60;99.90
6788;DHT22;3431;47.966;10.268;2022-10-22T00:45:20;12.60;99.90
6788;DHT22;3431;47.966;10.268;2022-10-22T00:45:45;12.50;99.90
6788;DHT22;3431;47.966;10.268;2022-10-22T00:46:07;12.50;99.90
6788;DHT22;3431;47.966;10.268;2022-10-22T00:46:29;12.50;99.90
6788;DHT22;3431;47.966;10.268;2022-10-22T00:46:50;12.50;99.90
6788;DHT22;3431;47.966;10.268;2022-10-22T00:47:12;12.50;99.90
6788;DHT22;3431;47.966;10.268;2022-10-22T00:47:37;12.50;99.90
6788;DHT22;3431;47.966;10.268;2022-10-22T00:48:00;12.50;99.90
6788;DHT22;3431;47.966;10.268;2022-10-22T00:48:26;12.40;99.90
6788;DHT22;3431;47.966;10.268;2022-10-22T00:48:50;12.40;99.90
6788;DHT22;3431;47.966;10.268;2022-10-22T00:49:12;12.40;99.90
6788;DHT22;3431;47.966;10.268;2022-10-22T00:49:34;12.40;99.90
6788;DHT22;3431;47.966;10.268;2022-10-22T00:49:56;12.40;99.90
6788;DHT22;3431;47.966;10.268;2022-10-22T00:50:23;12.40;99.90
6788;DHT22;3431;47.966;10.268;2022-10-22T00:50:47;12.40;99.90
6788;DHT22;3431;47.966;10.268;2022-10-22T00:51:10;12.40;99.90
6788;DHT22;3431;47.966;10.268;2022-10-22T00:51:33;12.40;99.90
6788;DHT22;3431;47.966;10.268;2022-10-22T00:51:56;12.40;99.90
6788;DHT22;3431;47.966;10.268;2022-10-22T00:52:17;12.40;99.90
6788;DHT22;3431;47.966;10.268;2022-10-22T00:52:39;12.40;99.90
6788;DHT22;3431;47.966;10.268;2022-10-22T00:53:03;12.40;99.90
6788;DHT22;3431;47.966;10.268;2022-10-22T00:53:30;12.40;99.90
6788;DHT22;3431;47.966;10.268;2022-10-22T00:53:55;12.30;99.90
6788;DHT22;3431;47.966;10.268;2022-10-22T00:54:18;12.30;99.90
6788;DHT22;3431;47.966;10.268;2022-10-22T00:54:40;12.30;99.90
6788;DHT22;3431;47.966;10.268;2022-10-22T00:55:03;12.30;99.90
6788;DHT22;3431;47.966;10.268;2022-10-22T00:55:25;12.30;99.90
6788;DHT22;3431;47.966;10.268;2022-10-22T00:55:50;12.20;99.90
6788;DHT22;3431;47.966;10.268;2022-10-22T00:56:14;12.30;99.90
6788;DHT22;3431;47.966;10.268;2022-10-22T00:56:36;12.20;99.90
6788;DHT22;3431;47.966;10.268;2022-10-22T00:56:58;12.20;99.90
6788;DHT22;3431;47.966;10.268;2022-10-22T00:57:20;12.20;99.90
6788;DHT22;3431;47.966;10.268;2022-10-22T00:57:42;12.20;99.90
6788;DHT22;3431;47.966;10.268;2022-10-22T00:58:05;12.20;99.90
6788;DHT22;3431;47.966;10.268;2022-10-22T00:58:30;12.20;99.90
6788;DHT22;3431;47.966;10.268;2022-10-22T00:58:55;12.20;99.90
6788;DHT22;3431;47.966;10.268;2022-10-22T00:59:17;12.20;99.90
6788;DHT22;3431;47.966;10.268;2022-10-22T00:59:39;12.20;99.90
6788;DHT22;3431;47.966;10.268;2022-10-22T01:00:03;12.20;99.90
6788;DHT22;3431;47.966;10.268;2022-10-22T01:00:25;12.20;99.90
6788;DHT22;3431;47.966;10.268;2022-10-22T01:00:48;12.20;99.90
6788;DHT22;3431;47.966;10.268;2022-10-22T01:01:19;12.20;99.90
6788;DHT22;3431;47.966;10.268;2022-10-22T01:01:43;12.20;99.90
6788;DHT22;3431;47.966;10.268;2022-10-22T01:02:05;12.10;99.90
6788;DHT22;3431;47.966;10.268;2022-10-22T01:02:27;12.10;99.90
6788;DHT22;3431;47.966;10.268;2022-10-22T01:02:49;12.10;99.90
6788;DHT22;3431;47.966;10.268;2022-10-22T01:03:12;12.10;99.90
6788;DHT22;3431;47.966;10.268;2022-10-22T01:03:34;12.10;99.90
6788;DHT22;3431;47.966;10.268;2022-10-22T01:03:56;12.10;99.90
6788;DHT22;3431;47.966;10.268;2022-10-22T01:04:18;12.10;99.90
6788;DHT22;3431;47.966;10.268;2022-10-22T01:04:41;12.10;99.90
6788;DHT22;3431;47.966;10.268;2022-10-22T01:05:03;12.10;99.90
6788;DHT22;3431;47.966;10.268;2022-10-22T01:05:26;12.10;99.90
6788;DHT22;3431;47.966;10.268;2022-10-22T01:05:54;12.10;99.90
6788;DHT22;3431;47.966;10.268;2022-10-22T01:06:20;12.00;99.90
6788;DHT22;3431;47.966;10.268;2022-10-22T01:06:43;12.00;99.90
6788;DHT22;3431;47.966;10.268;2022-10-22T01:07:05;12.00;99.90
6788;DHT22;3431;47.966;10.268;2022-10-22T01:07:26;12.00;99.90
6788;DHT22;3431;47.966;10.268;2022-10-22T01:07:50;12.00;99.90
6788;DHT22;3431;47.966;10.268;2022-10-22T01:08:18;12.00;99.90
6788;DHT22;3431;47.966;10.268;2022-10-22T01:08:45;12.00;99.90
6788;DHT22;3431;47.966;10.268;2022-10-22T01:09:17;11.90;99.90
6788;DHT22;3431;47.966;10.268;2022-10-22T01:09:49;11.90;99.90
6788;DHT22;3431;47.966;10.268;2022-10-22T01:10:22;11.90;99.90
6788;DHT22;3431;47.966;10.268;2022-10-22T01:10:54;11.90;99.90
6788;DHT22;3431;47.966;10.268;2022-10-22T01:11:22;11.90;99.90
6788;DHT22;3431;47.966;10.268;2022-10-22T01:11:54;11.80;99.90
6788;DHT22;3431;47.966;10.268;2022-10-22T01:12:26;11.80;99.90
6788;DHT22;3431;47.966;10.268;2022-10-22T01:12:56;11.80;99.90
6788;DHT22;3431;47.966;10.268;2022-10-22T01:13:32;11.80;99.90
6788;DHT22;3431;47.966;10.268;2022-10-22T01:14:06;11.80;99.90
6788;DHT22;3431;47.966;10.268;2022-10-22T01:14:35;11.80;99.90
6788;DHT22;3431;47.966;10.268;2022-10-22T01:15:09;11.80;99.90
6788;DHT22;3431;47.966;10.268;2022-10-22T01:15:37;11.80;99.90
6788;DHT22;3431;47.966;10.268;2022-10-22T01:16:09;11.80;99.90
6788;DHT22;3431;47.966;10.268;2022-10-22T01:16:36;11.80;99.90
6788;DHT22;3431;47.966;10.268;2022-10-22T01:17:05;11.70;99.90
6788;DHT22;3431;47.966;10.268;2022-10-22T01:17:34;11.80;99.90
6788;DHT22;3431;47.966;10.268;2022-10-22T01:18:05;11.70;99.90
6788;DHT22;3431;47.966;10.268;2022-10-22T01:18:33;11.70;99.90
6788;DHT22;3431;47.966;10.268;2022-10-22T01:19:04;11.70;99.90
6788;DHT22;3431;47.966;10.268;2022-10-22T01:19:39;11.70;99.90
6788;DHT22;3431;47.966;10.268;2022-10-22T01:20:14;11.70;99.90
6788;DHT22;3431;47.966;10.268;2022-10-22T01:20:52;11.70;99.90
6788;DHT22;3431;47.966;10.268;2022-10-22T01:21:24;11.70;99.90
6788;DHT22;3431;47.966;10.268;2022-10-22T01:21:54;11.60;99.90
6788;DHT22;3431;47.966;10.268;2022-10-22T01:22:24;11.60;99.90
6788;DHT22;3431;47.966;10.268;2022-10-22T01:22:54;11.60;99.90
6788;DHT22;3431;47.966;10.268;2022-10-22T01:23:37;11.60;99.90
6788;DHT22;3431;47.966;10.268;2022-10-22T01:24:30;11.60;99.90
6788;DHT22;3431;47.966;10.268;2022-10-22T01:24:57;11.60;99.90
6788;DHT22;3431;47.966;10.268;2022-10-22T01:25:26;11.60;99.90
6788;DHT22;3431;47.966;10.268;2022-10-22T01:25:56;11.60;99.90
6788;DHT22;3431;47.966;10.268;2022-10-22T01:26:24;11.60;99.90
6788;DHT22;3431;47.966;10.268;2022-10-22T01:27:54;11.60;99.90
6788;DHT22;3431;47.966;10.268;2022-10-22T01:28:36;11.50;99.90
6788;DHT22;3431;47.966;10.268;2022-10-22T01:29:03;11.50;99.90
6788;DHT22;3431;47.966;10.268;2022-10-22T01:29:29;11.50;99.90
6788;DHT22;3431;47.966;10.268;2022-10-22T01:29:57;11.50;99.90
6788;DHT22;3431;47.966;10.268;2022-10-22T01:30:21;11.50;99.90
6788;DHT22;3431;47.966;10.268;2022-10-22T01:30:44;11.50;99.90
6788;DHT22;3431;47.966;10.268;2022-10-22T01:31:07;11.50;99.90
6788;DHT22;3431;47.966;10.268;2022-10-22T01:31:33;11.50;99.90
6788;DHT22;3431;47.966;10.268;2022-10-22T01:32:01;11.50;99.90
6788;DHT22;3431;47.966;10.268;2022-10-22T01:32:25;11.50;99.90
6788;DHT22;3431;47.966;10.268;2022-10-22T01:32:50;11.50;99.90
6788;DHT22;3431;47.966;10.268;2022-10-22T01:33:17;11.50;99.90
6788;DHT22;3431;47.966;10.268;2022-10-22T01:33:39;11.50;99.90
6788;DHT22;3431;47.966;10.268;2022-10-22T01:34:02;11.50;99.90
6788;DHT22;3431;47.966;10.268;2022-10-22T01:34:25;11.60;99.90
6788;DHT22;3431;47.966;10.268;2022-10-22T01:34:51;11.60;99.90
6788;DHT22;3431;47.966;10.268;2022-10-22T01:35:17;11.60;99.90
6788;DHT22;3431;47.966;10.268;2022-10-22T01:35:42;11.60;99.90
6788;DHT22;3431;47.966;10.268;2022-10-22T01:36:06;11.70;99.90
6788;DHT22;3431;47.966;10.268;2022-10-22T01:36:30;11.70;99.90
6788;DHT22;3431;47.966;10.268;2022-10-22T01:36:52;11.70;99.90
6788;DHT22;3431;47.966;10.268;2022-10-22T01:37:16;11.70;99.90
6788;DHT22;3431;47.966;10.268;2022-10-22T01:37:41;11.80;99.90
6788;DHT22;3431;47.966;10.268;2022-10-22T01:38:08;12.30;99.90
6788;DHT22;3431;47.966;10.268;2022-10-22T01:38:31;11.80;99.90
6788;DHT22;3431;47.966;10.268;2022-10-22T01:38:55;11.90;99.90
6788;DHT22;3431;47.966;10.268;2022-10-22T01:39:17;11.90;99.90
6788;DHT22;3431;47.966;10.268;2022-10-22T01:39:41;11.90;99.90
6788;DHT22;3431;47.966;10.268;2022-10-22T01:40:05;11.90;99.90
6788;DHT22;3431;47.966;10.268;2022-10-22T01:40:28;11.90;99.90
6788;DHT22;3431;47.966;10.268;2022-10-22T01:40:51;11.90;99.90
6788;DHT22;3431;47.966;10.268;2022-10-22T01:41:13;11.80;99.90
6788;DHT22;3431;47.966;10.268;2022-10-22T01:41:35;11.80;99.90
6788;DHT22;3431;47.966;10.268;2022-10-22T01:41:57;11.80;99.90
6788;DHT22;3431;47.966;10.268;2022-10-22T01:42:19;11.80;99.90
6788;DHT22;3431;47.966;10.268;2022-10-22T01:42:42;11.80;99.90
6788;DHT22;3431;47.966;10.268;2022-10-22T01:43:13;11.80;99.90
6788;DHT22;3431;47.966;10.268;2022-10-22T01:43:36;11.80;99.90
6788;DHT22;3431;47.966;10.268;2022-10-22T01:43:59;11.80;99.90
6788;DHT22;3431;47.966;10.268;2022-10-22T01:44:25;11.80;99.90
6788;DHT22;3431;47.966;10.268;2022-10-22T01:44:47;11.80;99.90
6788;DHT22;3431;47.966;10.268;2022-10-22T01:45:11;11.70;99.90
6788;DHT22;3431;47.966;10.268;2022-10-22T01:45:36;11.80;99.90
6788;DHT22;3431;47.966;10.268;2022-10-22T01:46:02;11.80;99.90
6788;DHT22;3431;47.966;10.268;2022-10-22T01:46:26;11.80;99.90
6788;DHT22;3431;47.966;10.268;2022-10-22T01:46:50;11.70;99.90
6788;DHT22;3431;47.966;10.268;2022-10-22T01:47:16;11.70;99.90
6788;DHT22;3431;47.966;10.268;2022-10-22T01:47:47;11.70;99.90
6788;DHT22;3431;47.966;10.268;2022-10-22T01:48:25;11.70;99.90
6788;DHT22;3431;47.966;10.268;2022-10-22T01:49:02;11.70;99.90
6788;DHT22;3431;47.966;10.268;2022-10-22T01:49:33;11.70;99.90
6788;DHT22;3431;47.966;10.268;2022-10-22T01:50:19;11.60;99.90
6788;DHT22;3431;47.966;10.268;2022-10-22T01:50:59;11.60;99.90
6788;DHT22;3431;47.966;10.268;2022-10-22T01:51:35;11.60;99.90
6788;DHT22;3431;47.966;10.268;2022-10-22T01:52:04;11.50;99.90
6788;DHT22;3431;47.966;10.268;2022-10-22T01:52:43;11.60;99.90
6788;DHT22;3431;47.966;10.268;2022-10-22T01:53:18;11.60;99.90
6788;DHT22;3431;47.966;10.268;2022-10-22T01:53:49;11.50;99.90
6788;DHT22;3431;47.966;10.268;2022-10-22T01:54:22;11.60;99.90
6788;DHT22;3431;47.966;10.268;2022-10-22T01:54:51;11.50;99.90
6788;DHT22;3431;47.966;10.268;2022-10-22T01:55:21;11.50;99.90
6788;DHT22;3431;47.966;10.268;2022-10-22T01:55:55;11.50;99.90
6788;DHT22;3431;47.966;10.268;2022-10-22T01:56:29;11.50;99.90
6788;DHT22;3431;47.966;10.268;2022-10-22T01:56:59;11.60;99.90
6788;DHT22;3431;47.966;10.268;2022-10-22T01:57:31;11.50;99.90
6788;DHT22;3431;47.966;10.268;2022-10-22T01:58:06;11.50;99.90
6788;DHT22;3431;47.966;10.268;2022-10-22T01:58:38;11.60;99.90
6788;DHT22;3431;47.966;10.268;2022-10-22T01:59:06;11.50;99.90
6788;DHT22;3431;47.966;10.268;2022-10-22T01:59:38;11.50;99.90
6788;DHT22;3431;47.966;10.268;2022-10-22T02:00:06;11.50;99.90
6788;DHT22;3431;47.966;10.268;2022-10-22T02:00:29;11.50;99.90
6788;DHT22;3431;47.966;10.268;2022-10-22T02:01:07;11.50;99.90
6788;DHT22;3431;47.966;10.268;2022-10-22T02:01:39;11.60;99.90
6788;DHT22;3431;47.966;10.268;2022-10-22T02:02:06;11.60;99.90
6788;DHT22;3431;47.966;10.268;2022-10-22T02:02:37;11.60;99.90
6788;DHT22;3431;47.966;10.268;2022-10-22T02:03:05;11.60;99.90
6788;DHT22;3431;47.966;10.268;2022-10-22T02:03:31;11.60;99.90
6788;DHT22;3431;47.966;10.268;2022-10-22T02:04:00;11.60;99.90
6788;DHT22;3431;47.966;10.268;2022-10-22T02:04:26;11.60;99.90
6788;DHT22;3431;47.966;10.268;2022-10-22T02:04:52;11.60;99.90
6788;DHT22;3431;47.966;10.268;2022-10-22T02:05:20;11.60;99.90
6788;DHT22;3431;47.966;10.268;2022-10-22T02:05:46;11.60;99.90
6788;DHT22;3431;47.966;10.268;2022-10-22T02:06:13;11.60;99.90
6788;DHT22;3431;47.966;10.268;2022-10-22T02:06:38;11.60;99.90
6788;DHT22;3431;47.966;10.268;2022-10-22T02:07:05;11.60;99.90
6788;DHT22;3431;47.966;10.268;2022-10-22T02:07:30;11.60;99.90
6788;DHT22;3431;47.966;10.268;2022-10-22T02:08:00;11.60;99.90
6788;DHT22;3431;47.966;10.268;2022-10-22T02:08:24;11.60;99.90
6788;DHT22;3431;47.966;10.268;2022-10-22T02:08:49;11.60;99.90
6788;DHT22;3431;47.966;10.268;2022-10-22T02:09:13;11.60;99.90
6788;DHT22;3431;47.966;10.268;2022-10-22T02:09:36;11.60;99.90
6788;DHT22;3431;47.966;10.268;2022-10-22T02:10:00;11.60;99.90
6788;DHT22;3431;47.966;10.268;2022-10-22T02:10:23;11.60;99.90
6788;DHT22;3431;47.966;10.268;2022-10-22T02:10:46;11.60;99.90
6788;DHT22;3431;47.966;10.268;2022-10-22T02:11:08;11.60;99.90
6788;DHT22;3431;47.966;10.268;2022-10-22T02:11:31;11.60;99.90
6788;DHT22;3431;47.966;10.268;2022-10-22T02:11:55;11.60;99.90
6788;DHT22;3431;47.966;10.268;2022-10-22T02:12:19;11.60;99.90
6788;DHT22;3431;47.966;10.268;2022-10-22T02:12:42;11.60;99.90
6788;DHT22;3431;47.966;10.268;2022-10-22T02:13:08;11.60;99.90
6788;DHT22;3431;47.966;10.268;2022-10-22T02:13:34;11.60;99.90
6788;DHT22;3431;47.966;10.268;2022-10-22T02:14:02;11.60;99.90
6788;DHT22;3431;47.966;10.268;2022-10-22T02:14:26;11.60;99.90
6788;DHT22;3431;47.966;10.268;2022-10-22T02:14:51;11.60;99.90
6788;DHT22;3431;47.966;10.268;2022-10-22T02:15:14;11.70;99.90
6788;DHT22;3431;47.966;10.268;2022-10-22T02:15:37;11.60;99.90
6788;DHT22;3431;47.966;10.268;2022-10-22T02:16:00;11.70;99.90
6788;DHT22;3431;47.966;10.268;2022-10-22T02:16:29;11.70;99.90
6788;DHT22;3431;47.966;10.268;2022-10-22T02:16:52;11.70;99.90
6788;DHT22;3431;47.966;10.268;2022-10-22T02:17:16;11.70;99.90
6788;DHT22;3431;47.966;10.268;2022-10-22T02:17:41;11.70;99.90
6788;DHT22;3431;47.966;10.268;2022-10-22T02:18:06;11.70;99.90
6788;DHT22;3431;47.966;10.268;2022-10-22T02:18:31;11.70;99.90
6788;DHT22;3431;47.966;10.268;2022-10-22T02:18:57;11.70;99.90
6788;DHT22;3431;47.966;10.268;2022-10-22T02:19:25;11.70;99.90
6788;DHT22;3431;47.966;10.268;2022-10-22T02:19:49;11.80;99.90
6788;DHT22;3431;47.966;10.268;2022-10-22T02:20:17;11.80;99.90
6788;DHT22;3431;47.966;10.268;2022-10-22T02:20:40;11.80;99.90
6788;DHT22;3431;47.966;10.268;2022-10-22T02:21:04;11.90;99.90
6788;DHT22;3431;47.966;10.268;2022-10-22T02:21:26;11.90;99.90
6788;DHT22;3431;47.966;10.268;2022-10-22T02:21:48;11.90;99.90
6788;DHT22;3431;47.966;10.268;2022-10-22T02:22:10;11.90;99.90
6788;DHT22;3431;47.966;10.268;2022-10-22T02:22:32;11.90;99.90
6788;DHT22;3431;47.966;10.268;2022-10-22T02:22:57;11.90;99.90
6788;DHT22;3431;47.966;10.268;2022-10-22T02:23:20;11.90;99.90
6788;DHT22;3431;47.966;10.268;2022-10-22T02:23:42;11.90;99.90
6788;DHT22;3431;47.966;10.268;2022-10-22T02:24:05;12.00;99.90
6788;DHT22;3431;47.966;10.268;2022-10-22T02:24:28;12.00;99.90
6788;DHT22;3431;47.966;10.268;2022-10-22T02:24:49;12.00;99.90
6788;DHT22;3431;47.966;10.268;2022-10-22T02:25:12;12.00;99.90
6788;DHT22;3431;47.966;10.268;2022-10-22T02:25:36;12.00;99.90
6788;DHT22;3431;47.966;10.268;2022-10-22T02:26:02;11.90;99.90
6788;DHT22;3431;47.966;10.268;2022-10-22T02:26:32;12.00;99.90
6788;DHT22;3431;47.966;10.268;2022-10-22T02:27:02;12.00;99.90
6788;DHT22;3431;47.966;10.268;2022-10-22T02:27:30;12.00;99.90
6788;DHT22;3431;47.966;10.268;2022-10-22T02:28:00;12.00;99.90
6788;DHT22;3431;47.966;10.268;2022-10-22T02:28:26;12.00;99.90
6788;DHT22;3431;47.966;10.268;2022-10-22T02:28:56;12.00;99.90
6788;DHT22;3431;47.966;10.268;2022-10-22T02:29:21;12.00;99.90
6788;DHT22;3431;47.966;10.268;2022-10-22T02:29:49;12.00;99.90
6788;DHT22;3431;47.966;10.268;2022-10-22T02:30:15;12.00;99.90
6788;DHT22;3431;47.966;10.268;2022-10-22T02:30:39;12.00;99.90
6788;DHT22;3431;47.966;10.268;2022-10-22T02:31:07;12.00;99.90
6788;DHT22;3431;47.966;10.268;2022-10-22T02:31:34;12.00;99.90
6788;DHT22;3431;47.966;10.268;2022-10-22T02:31:57;12.00;99.90
6788;DHT22;3431;47.966;10.268;2022-10-22T02:32:24;12.00;99.90
6788;DHT22;3431;47.966;10.268;2022-10-22T02:32:50;12.00;99.90
6788;DHT22;3431;47.966;10.268;2022-10-22T02:33:18;12.00;99.90
6788;DHT22;3431;47.966;10.268;2022-10-22T02:33:42;12.00;99.90
6788;DHT22;3431;47.966;10.268;2022-10-22T02:34:09;12.00;99.90
6788;DHT22;3431;47.966;10.268;2022-10-22T02:34:31;12.00;99.90
6788;DHT22;3431;47.966;10.268;2022-10-22T02:34:55;11.90;99.90
6788;DHT22;3431;47.966;10.268;2022-10-22T02:35:20;11.90;99.90
6788;DHT22;3431;47.966;10.268;2022-10-22T02:35:42;11.90;99.90
6788;DHT22;3431;47.966;10.268;2022-10-22T02:36:06;11.90;99.90
6788;DHT22;3431;47.966;10.268;2022-10-22T02:36:30;11.90;99.90
6788;DHT22;3431;47.966;10.268;2022-10-22T02:36:53;11.90;99.90
6788;DHT22;3431;47.966;10.268;2022-10-22T02:37:15;11.90;99.90
6788;DHT22;3431;47.966;10.268;2022-10-22T02:37:39;11.90;99.90
6788;DHT22;3431;47.966;10.268;2022-10-22T02:38:02;11.90;99.90
6788;DHT22;3431;47.966;10.268;2022-10-22T02:38:25;11.90;99.90
6788;DHT22;3431;47.966;10.268;2022-10-22T02:38:48;11.90;99.90
6788;DHT22;3431;47.966;10.268;2022-10-22T02:39:11;11.90;99.90
6788;DHT22;3431;47.966;10.268;2022-10-22T02:39:35;11.90;99.90
6788;DHT22;3431;47.966;10.268;2022-10-22T02:39:58;11.90;99.90
6788;DHT22;3431;47.966;10.268;2022-10-22T02:40:20;11.90;99.90
6788;DHT22;3431;47.966;10.268;2022-10-22T02:40:41;11.90;99.90
6788;DHT22;3431;47.966;10.268;2022-10-22T02:41:03;11.90;99.90
6788;DHT22;3431;47.966;10.268;2022-10-22T02:41:25;11.90;99.90
6788;DHT22;3431;47.966;10.268;2022-10-22T02:41:48;11.90;99.90